Gio Yedlin

Scout - CF Montreal
11 Mär 2027
Donnerstag
Verarbeitung

Persönlichkeit

Anpassungsfähigkeit (3) Ehrgeiz (19) Kontroverse (4) Loyalität (11) Druck (11) Professionalität (11) Fairness (3) Temperament (6)

Profil

Trainerstil Demokratisch
Lizenz Kontinentale A
Entschlossenheit 9
Menschenführung 7
Motivation 11
Disziplin 9
Arbeitszufriedenheit
95%
Ermüdung
0%
Rolle Scout
Gehalt 56.3K p/W
Vertrag 14.03.2030

Leistung

Verhalten Gut
Trainingseffektivität
34%
Spielerentwicklung
40%
Verletzungsprävention
55%
Taktische Umsetzung
30%

Letzte Ereignisse

Nahm an einer Scouting-Besprechung teil jetzt
Nahm an einer Scouting-Besprechung teil jetzt
Spieler begutachtet 7T her
Nahm an einer Scouting-Besprechung teil 7T her
Nahm an einer Scouting-Besprechung teil 7T her
Nahm an einer Scouting-Besprechung teil 7T her
Spiel beobachtet 7T her
Nahm an einer Scouting-Besprechung teil 14T her

Aktuell beobachtet

102
Spieler Verein Status Fähigkeit Vertrauen Beobachtet Zuletzt beobachtet Letzte Stimme
Thomas Williams Nashville SC Aktiv 89 / 108 48% 1 08.03.2027 -
Cathal Heffernan Harrogate Town Aktiv 89 / 81 40% 1 01.03.2027 -
Matvey Kislyak CSKA Moscow Aktiv 133 / 130 40% 1 01.03.2027 -
Kévin Denkey FC Cincinnati Aktiv 134 / 132 48% 1 19.02.2027 -
Nəriman Axundzadə Columbus Crew Verloren 127 / 127 48% 1 14.02.2027 -
Marezi Portsmouth Aktiv 132 / 115 40% 1 13.02.2027 -
Dom Ballard Leyton Orient Aktiv 130 / 122 40% 1 13.02.2027 -
Michael Cooper Sheffield United Aktiv 132 / 125 40% 3 12.02.2027 -
Murphy Cooper Plymouth Argyle Aktiv 110 / 121 40% 1 12.02.2027 -
Marcelo Allende Mamelodi Sundowns Aktiv 139 / 128 40% 4 11.02.2027 -
Juan Diego Castillo Vitoria Guimaraes Aktiv 126 / 120 40% 2 11.02.2027 -
Derry Murkin Derby County Aktiv 131 / 115 40% 1 11.02.2027 -
João Virgínia Wolverhampton Aktiv 116 / 120 40% 1 11.02.2027 -
Jamie Cumming Oxford United Aktiv 126 / 130 40% 1 09.02.2027 -
Maksym Tatarenko Chernihiv Aktiv 77 / 107 40% 1 08.02.2027 -
Keagan Mothiba SuperSport United Aktiv 125 / 99 40% 8 06.02.2027 -
Welington Southampton Aktiv 144 / 122 40% 1 06.02.2027 -
Teddy Sharman-Lowe Chelsea Aktiv 125 / 130 40% 1 05.02.2027 -
Svetoslav Vutsov Levski Aktiv 122 / 124 40% 1 05.02.2027 -
Mark Travers Everton Aktiv 139 / 127 40% 2 04.02.2027 -
Tim Iroegbunam Hull City Aktiv 150 / 149 40% 1 04.02.2027 -
Derensili Sanches Fernandes Huddersfield Town Aktiv 129 / 132 40% 1 04.02.2027 -
Daniel Kelly Oxford United Aktiv 111 / 109 40% 1 02.02.2027 -
Louie Barry Sheffield Wednesday Aktiv 114 / 120 40% 1 31.01.2027 -
Carlos Vicente Birmingham Aktiv 138 / 131 40% 1 31.01.2027 -
Jakub Stolarczyk Leicester City Aktiv 127 / 145 40% 1 30.01.2027 -
Riley Owen Trento Aktiv 105 / 101 40% 1 29.01.2027 -
Radek Vítek Middlesbrough Aktiv 147 / 146 40% 1 28.01.2027 -
Jordan Amissah Burton Albion Aktiv 111 / 97 40% 1 28.01.2027 -
Ilyas Ansah Hull City Aktiv 139 / 141 40% 1 27.01.2027 -
Kristoffer Lund Birmingham Aktiv 140 / 124 40% 1 27.01.2027 -
Daniil Frolkin Fakel Aktiv 112 / 114 40% 1 25.01.2027 -
Lorenzo Palmisani Frosinone Aktiv 127 / 119 40% 1 25.01.2027 -
Will Dennis Milton Keynes Dons Aktiv 118 / 104 40% 1 24.01.2027 -
Nicolás Sumavil Platense Aktiv 125 / 124 40% 1 23.01.2027 -
Andras Nikolic Haladas Aktiv 129 / 99 40% 1 22.01.2027 -
Anton Zhylkin Karpaty Aktiv 103 / 92 40% 1 22.01.2027 -
Tyrese Campbell Sheffield United Aktiv 128 / 129 40% 1 22.01.2027 -
Vadym Yushchyshyn UCSA Aktiv 89 / 72 40% 1 20.01.2027 -
Agustín Lastra Estudiantes Aktiv 114 / 102 40% 1 20.01.2027 -
Bradley Zwane Platinum Stars Aktiv 89 / 113 40% 2 19.01.2027 -
Bade Aluko Leicester City Aktiv 118 / 130 40% 2 19.01.2027 -
Tristan Crama Millwall Aktiv 129 / 135 40% 2 19.01.2027 -
Christ Inao Oulaï Fiorentina Aktiv 131 / 133 40% 1 19.01.2027 -
Josh King Chelsea Aktiv 139 / 142 40% 1 17.01.2027 -
Loum Tchaouna Coventry City Aktiv 151 / 132 40% 1 17.01.2027 -
Bobby Clark Derby County Aktiv 112 / 125 40% 1 17.01.2027 -
Fiacre Ntwari Kaizer Chiefs Aktiv 124 / 124 40% 1 16.01.2027 -
Edoardo Corvi Parma Aktiv 138 / 120 40% 1 16.01.2027 -
Lévi Ntumba Slavia Sofia Aktiv 97 / 118 40% 1 15.01.2027 Mehr Infos nötig
Mateusz Kochalski Dynamo Kyiv Verhandlung 146 / 130 40% 1 15.01.2027 Mehr Infos nötig
Ivor Pandur Hull City Aktiv 135 / 122 40% 2 13.01.2027 -
Felipe Zenobio Tigre Aktiv 140 / 117 40% 2 13.01.2027 -
Mykyta Turbaievskyi Zorya Aktiv 130 / 110 40% 1 12.01.2027 -
Joseph Wakaso Wa All Stars Aktiv 129 / 113 40% 2 09.01.2027 -
Caio Vidal Ludogorets Aktiv 123 / 110 40% 2 09.01.2027 -
Kyle Jurgens Maritzburg United Aktiv 88 / 118 40% 2 08.01.2027 -
Mduduzi Shabalala Kaizer Chiefs Aktiv 95 / 127 40% 2 07.01.2027 -
Chari Giwa US Bougouba Aktiv 86 / 67 40% 1 05.01.2027 -
Ifeanyi Emmanuel Niger Tornadoes Aktiv 81 / 92 40% 1 01.01.2027 -
Gift Hlatshwayo Free State Stars Aktiv 112 / 100 40% 1 01.01.2027 -
Ali Ishaku Abia Warriors Aktiv 113 / 91 40% 1 31.12.2026 -
Bradley Mabunda SuperSport United Aktiv 99 / 101 40% 1 31.12.2026 -
Reda Khadra Qarabag Aktiv 117 / 149 40% 1 27.12.2026 -
Mandla Erasmus SuperSport United Aktiv 121 / 107 40% 5 26.12.2026 -
Mfundo Vilakazi Kaizer Chiefs Aktiv 92 / 130 40% 2 23.12.2026 -
Sidiki Chérif Coventry City Aktiv 117 / 136 40% 1 22.12.2026 -
Isaac Kyereh Liberty Professionals Aktiv 112 / 133 40% 1 22.12.2026 -
Luciano Gondou CSKA Moscow Aktiv 132 / 142 40% 1 21.12.2026 -
Christian Krasnodar Aktiv 140 / 113 40% 1 19.12.2026 -
Josh Eccles Coventry City Aktiv 107 / 105 40% 1 11.12.2026 -
Reece Braithwaite Inter Aktiv 101 / 125 40% 1 11.12.2026 -
Ezra Mayers West Ham United Aktiv 120 / 120 40% 1 11.12.2026 -
Sergio Arribas Almería Aktiv 131 / 130 40% 2 07.12.2026 -
Daniel Kyerewaa Reading Aktiv 106 / 109 40% 2 16.11.2026 -
Femi Seriki Sheffield United Aktiv 134 / 127 40% 1 16.11.2026 -
Johnly Yfeko Exeter City Aktiv 120 / 101 40% 2 15.11.2026 -
Siyanda Ndlovu Bloemfontein Celtic Aktiv 114 / 104 40% 1 13.11.2026 -
Oswin Appollis Orlando Pirates Aktiv 138 / 124 40% 3 11.11.2026 -
Conrad Wallem Austria Wien Aktiv 134 / 116 40% 1 09.11.2026 -
João Gomes Aston Villa Aktiv 152 / 137 40% 2 07.11.2026 -
Joe Knight Stevenage Aktiv 84 / 114 40% 1 07.11.2026 Mehr Infos nötig
Rabby Nzingoula West Bromwich Albion Aktiv 105 / 122 40% 1 07.11.2026 -
Nicolás Fernández Mercau Shakhtar Aktiv 141 / 129 40% 3 06.11.2026 -
Sinoxolo Kwayiba Chippa United Aktiv 106 / 93 40% 1 05.11.2026 -
Simphiwe Selepe Orlando Pirates Aktiv 101 / 100 40% 1 03.11.2026 -
Surprise Manthosi Polokwane City Aktiv 112 / 98 40% 1 03.11.2026 -
Luca Connell Barnsley Aktiv 99 / 105 40% 1 28.10.2026 -
Thabang Matuludi Polokwane City Aktiv 93 / 100 40% 1 28.10.2026 -
Kyreece Lisbie Colchester United Aktiv 117 / 121 40% 1 21.10.2026 -
Marco Pašalić Orlando City Aktiv 116 / 128 40% 2 17.10.2026 -
Jens Petter Hauge Bodo/Glimt Aktiv 162 / 150 40% 1 11.10.2026 -
Djordje Mihailović Toronto FC Aktiv 120 / 132 40% 1 17.09.2026 -
Charlie Savage Reading Aktiv 114 / 106 40% 1 14.09.2026 -
Jordan Lotomba Bloemfontein Celtic Aktiv 105 / 108 40% 2 13.09.2026 -
George Earthy Reading Aktiv 115 / 121 40% 1 12.09.2026 -
Bryan Ramírez FC Cincinnati Aktiv 134 / 117 40% 1 11.09.2026 -
Santiago Rodríguez Columbus Crew Aktiv 127 / 122 40% 1 09.09.2026 -
Bénie Traoré New York City Verloren 134 / 117 40% 1 08.09.2026 -
Kyle Joseph Middlesbrough Aktiv 108 / 107 40% 1 08.09.2026 -
Devin Padelford Minnesota United FC Aktiv 95 / 95 48% 1 03.08.2026 -
Juan Martín Rojas Morón Aktiv 124 / 97 40% 1 02.08.2026 -